Airfield :
LOGIN :

Register | Disclaimer

   EN    FR    IT 

 










Legend :    VFR   Marginal VFR   IFR   Intensive IFR   Very Intensive IFR
Visi :
Ceiling :
>= 8 km
>= 3000ft
5 to 8 km
1000 to 3000 ft
1500m to 5 km
500 to 1000 ft
800 to 1500m
200 to 500 ft
< 800m
< 200 ft
Symbols :   Thunderstorms  Fog  Heavy snow  Heavy precipitations  Wind > 20 kt
SIGMETs :     Misc.  Thunderstorms  Icing  Turbulence  Mountain Waves  Volcanic Ashes






- Airport Elevation : 1260 ft
- IATA code : LDE


LFBT - Tarbes / Ossun

CURRENT METAR :
  • 171900Z AUTO 22004KT 170V240 9999 BKN040 18/16 Q1015 NOSIG

EXPIRED METARs :
  • 171830Z AUTO 22004KT 9999 FEW039 19/16 Q1014 NOSIG
  • 171800Z AUTO VRB02KT 9999 BKN040 20/15 Q1014 NOSIG
  • 171730Z AUTO 35004KT 9999 BKN039 22/16 Q1014 NOSIG
  • 171700Z AUTO 34003KT 310V050 CAVOK 23/15 Q1014 NOSIG
  • 171630Z AUTO 34004KT 290V030 9999 SCT039 24/15 Q1014 NOSIG

TAF TAF LFBT
Valid from the 17 at 18:00 until the 18 at 18:00 UTC


171700Z 1718/1818 VRB03KT CAVOK
BECMG 1723/1801 27010KT BKN030
BECMG 1804/1806 4000 RA BKN005 OVC020



MET'MAP, your aeronautical weather chart ! - Copyright ORBIFLY December 2007 - Disclaimer

ORBIFLY MET'MAP TEAM :

Programming & Development : Alexandra Zaïnal
Concept & original design : Baudouin d'Aumeries
Assistance for programming : Marc-Olivier Méhu
Technical & hardware support : Manuel Goepfert

Contact : metmap@orbifly.com




SOURCES & CREDITS :

   NOAA